sensor_id;sensor_type;location;lat;lon;timestamp;P1;durP1;ratioP1;P2;durP2;ratioP2
70975;SDS011;58635;51.198;6.010;2023-11-21T00:02:10;12.35;;;8.68;;
70975;SDS011;58635;51.198;6.010;2023-11-21T00:04:36;14.25;;;8.38;;
70975;SDS011;58635;51.198;6.010;2023-11-21T00:07:01;13.07;;;9.23;;
70975;SDS011;58635;51.198;6.010;2023-11-21T00:09:26;12.73;;;8.32;;
70975;SDS011;58635;51.198;6.010;2023-11-21T00:11:52;14.10;;;8.93;;
70975;SDS011;58635;51.198;6.010;2023-11-21T00:14:17;15.80;;;9.85;;
70975;SDS011;58635;51.198;6.010;2023-11-21T00:16:43;13.55;;;8.70;;
70975;SDS011;58635;51.198;6.010;2023-11-21T00:19:08;15.85;;;9.52;;
70975;SDS011;58635;51.198;6.010;2023-11-21T00:21:33;16.10;;;9.70;;
70975;SDS011;58635;51.198;6.010;2023-11-21T00:23:59;15.50;;;9.65;;
70975;SDS011;58635;51.198;6.010;2023-11-21T00:26:24;13.65;;;9.43;;
70975;SDS011;58635;51.198;6.010;2023-11-21T00:28:50;14.70;;;10.35;;
70975;SDS011;58635;51.198;6.010;2023-11-21T00:31:15;13.68;;;9.45;;
70975;SDS011;58635;51.198;6.010;2023-11-21T00:33:41;13.77;;;9.32;;
70975;SDS011;58635;51.198;6.010;2023-11-21T00:36:07;14.02;;;8.52;;
70975;SDS011;58635;51.198;6.010;2023-11-21T00:38:35;19.50;;;8.73;;
70975;SDS011;58635;51.198;6.010;2023-11-21T00:41:01;13.05;;;9.40;;
70975;SDS011;58635;51.198;6.010;2023-11-21T00:43:27;12.32;;;8.60;;
70975;SDS011;58635;51.198;6.010;2023-11-21T00:45:53;14.05;;;8.80;;
70975;SDS011;58635;51.198;6.010;2023-11-21T00:48:18;11.57;;;8.98;;
70975;SDS011;58635;51.198;6.010;2023-11-21T00:50:44;11.65;;;8.90;;
70975;SDS011;58635;51.198;6.010;2023-11-21T00:53:09;13.02;;;9.20;;
70975;SDS011;58635;51.198;6.010;2023-11-21T00:55:35;11.65;;;8.55;;
70975;SDS011;58635;51.198;6.010;2023-11-21T00:58:01;12.00;;;9.10;;
70975;SDS011;58635;51.198;6.010;2023-11-21T01:00:29;13.25;;;9.30;;
70975;SDS011;58635;51.198;6.010;2023-11-21T01:02:54;14.85;;;9.30;;
70975;SDS011;58635;51.198;6.010;2023-11-21T01:05:20;14.00;;;9.30;;
70975;SDS011;58635;51.198;6.010;2023-11-21T01:07:45;14.55;;;9.93;;
70975;SDS011;58635;51.198;6.010;2023-11-21T01:10:11;14.70;;;9.80;;
70975;SDS011;58635;51.198;6.010;2023-11-21T01:12:36;16.02;;;9.38;;
70975;SDS011;58635;51.198;6.010;2023-11-21T01:15:03;14.70;;;9.98;;
70975;SDS011;58635;51.198;6.010;2023-11-21T01:17:32;18.88;;;10.50;;
70975;SDS011;58635;51.198;6.010;2023-11-21T01:19:59;16.00;;;10.18;;
70975;SDS011;58635;51.198;6.010;2023-11-21T01:22:25;16.38;;;10.55;;
70975;SDS011;58635;51.198;6.010;2023-11-21T01:24:51;17.50;;;11.02;;
70975;SDS011;58635;51.198;6.010;2023-11-21T01:27:21;17.05;;;11.15;;
70975;SDS011;58635;51.198;6.010;2023-11-21T01:29:46;16.40;;;11.05;;
70975;SDS011;58635;51.198;6.010;2023-11-21T01:32:11;16.50;;;10.48;;
70975;SDS011;58635;51.198;6.010;2023-11-21T01:34:37;16.25;;;10.57;;
70975;SDS011;58635;51.198;6.010;2023-11-21T01:37:02;17.55;;;10.50;;
70975;SDS011;58635;51.198;6.010;2023-11-21T01:39:29;18.50;;;10.52;;
70975;SDS011;58635;51.198;6.010;2023-11-21T01:41:55;17.52;;;10.80;;
70975;SDS011;58635;51.198;6.010;2023-11-21T01:44:20;17.15;;;10.00;;
70975;SDS011;58635;51.198;6.010;2023-11-21T01:46:46;16.27;;;10.30;;
70975;SDS011;58635;51.198;6.010;2023-11-21T01:49:13;17.42;;;10.43;;
70975;SDS011;58635;51.198;6.010;2023-11-21T01:51:41;18.60;;;10.45;;
70975;SDS011;58635;51.198;6.010;2023-11-21T01:54:08;19.50;;;10.88;;
70975;SDS011;58635;51.198;6.010;2023-11-21T01:56:34;16.90;;;10.48;;
70975;SDS011;58635;51.198;6.010;2023-11-21T01:58:59;17.73;;;10.00;;
70975;SDS011;58635;51.198;6.010;2023-11-21T02:01:25;18.05;;;10.13;;
70975;SDS011;58635;51.198;6.010;2023-11-21T02:03:51;18.17;;;10.68;;
70975;SDS011;58635;51.198;6.010;2023-11-21T02:06:17;19.13;;;11.10;;
70975;SDS011;58635;51.198;6.010;2023-11-21T02:08:43;13.95;;;9.65;;
70975;SDS011;58635;51.198;6.010;2023-11-21T02:11:09;15.90;;;9.90;;
70975;SDS011;58635;51.198;6.010;2023-11-21T02:13:38;18.50;;;11.25;;
70975;SDS011;58635;51.198;6.010;2023-11-21T02:16:03;22.48;;;11.98;;
70975;SDS011;58635;51.198;6.010;2023-11-21T02:18:30;17.73;;;11.02;;
70975;SDS011;58635;51.198;6.010;2023-11-21T02:20:56;25.77;;;12.05;;
70975;SDS011;58635;51.198;6.010;2023-11-21T02:23:21;21.25;;;11.75;;
70975;SDS011;58635;51.198;6.010;2023-11-21T02:25:48;18.58;;;11.52;;
70975;SDS011;58635;51.198;6.010;2023-11-21T02:28:13;21.80;;;11.35;;
70975;SDS011;58635;51.198;6.010;2023-11-21T02:30:41;19.13;;;11.00;;
70975;SDS011;58635;51.198;6.010;2023-11-21T02:33:07;20.08;;;12.25;;
70975;SDS011;58635;51.198;6.010;2023-11-21T02:35:32;19.17;;;11.52;;
70975;SDS011;58635;51.198;6.010;2023-11-21T02:37:58;22.33;;;11.75;;
70975;SDS011;58635;51.198;6.010;2023-11-21T02:40:23;22.85;;;13.02;;
70975;SDS011;58635;51.198;6.010;2023-11-21T02:42:50;22.48;;;13.13;;
70975;SDS011;58635;51.198;6.010;2023-11-21T02:45:16;20.35;;;13.40;;
70975;SDS011;58635;51.198;6.010;2023-11-21T02:47:42;25.10;;;13.38;;
70975;SDS011;58635;51.198;6.010;2023-11-21T02:50:10;21.58;;;13.95;;
70975;SDS011;58635;51.198;6.010;2023-11-21T02:52:36;24.80;;;15.55;;
70975;SDS011;58635;51.198;6.010;2023-11-21T02:55:02;25.30;;;14.73;;
70975;SDS011;58635;51.198;6.010;2023-11-21T02:57:27;25.17;;;13.50;;
70975;SDS011;58635;51.198;6.010;2023-11-21T02:59:53;26.90;;;14.70;;
70975;SDS011;58635;51.198;6.010;2023-11-21T03:02:19;29.38;;;15.75;;
70975;SDS011;58635;51.198;6.010;2023-11-21T03:04:45;26.40;;;14.27;;
70975;SDS011;58635;51.198;6.010;2023-11-21T03:07:10;27.70;;;14.98;;
70975;SDS011;58635;51.198;6.010;2023-11-21T03:09:35;24.55;;;14.88;;
70975;SDS011;58635;51.198;6.010;2023-11-21T03:12:01;28.67;;;16.38;;
70975;SDS011;58635;51.198;6.010;2023-11-21T03:14:26;27.52;;;16.00;;
70975;SDS011;58635;51.198;6.010;2023-11-21T03:16:52;29.83;;;16.35;;
70975;SDS011;58635;51.198;6.010;2023-11-21T03:19:17;24.50;;;15.35;;
70975;SDS011;58635;51.198;6.010;2023-11-21T03:21:43;25.77;;;15.40;;
70975;SDS011;58635;51.198;6.010;2023-11-21T03:24:08;27.65;;;15.23;;
70975;SDS011;58635;51.198;6.010;2023-11-21T03:26:33;24.45;;;13.98;;
70975;SDS011;58635;51.198;6.010;2023-11-21T03:28:59;25.13;;;14.60;;
70975;SDS011;58635;51.198;6.010;2023-11-21T03:31:24;25.80;;;14.85;;
70975;SDS011;58635;51.198;6.010;2023-11-21T03:33:49;23.67;;;14.23;;
70975;SDS011;58635;51.198;6.010;2023-11-21T03:36:15;22.10;;;13.45;;
70975;SDS011;58635;51.198;6.010;2023-11-21T03:38:41;22.20;;;13.55;;
70975;SDS011;58635;51.198;6.010;2023-11-21T03:41:06;24.38;;;14.40;;
70975;SDS011;58635;51.198;6.010;2023-11-21T03:43:35;21.50;;;12.95;;
70975;SDS011;58635;51.198;6.010;2023-11-21T03:46:01;18.60;;;12.52;;
70975;SDS011;58635;51.198;6.010;2023-11-21T03:48:27;19.13;;;12.88;;
70975;SDS011;58635;51.198;6.010;2023-11-21T03:50:52;21.10;;;13.18;;
70975;SDS011;58635;51.198;6.010;2023-11-21T03:53:18;17.92;;;13.15;;
70975;SDS011;58635;51.198;6.010;2023-11-21T03:55:43;20.33;;;12.85;;
70975;SDS011;58635;51.198;6.010;2023-11-21T03:58:08;19.00;;;13.43;;
70975;SDS011;58635;51.198;6.010;2023-11-21T04:00:34;17.85;;;11.98;;
70975;SDS011;58635;51.198;6.010;2023-11-21T04:02:59;16.30;;;11.35;;
70975;SDS011;58635;51.198;6.010;2023-11-21T04:05:24;18.63;;;11.82;;
70975;SDS011;58635;51.198;6.010;2023-11-21T04:07:50;15.43;;;11.38;;
70975;SDS011;58635;51.198;6.010;2023-11-21T04:10:16;18.08;;;11.52;;
70975;SDS011;58635;51.198;6.010;2023-11-21T04:12:42;18.08;;;12.02;;
70975;SDS011;58635;51.198;6.010;2023-11-21T04:15:08;15.27;;;11.63;;
70975;SDS011;58635;51.198;6.010;2023-11-21T04:17:34;16.98;;;11.70;;
70975;SDS011;58635;51.198;6.010;2023-11-21T04:20:00;18.08;;;12.55;;
70975;SDS011;58635;51.198;6.010;2023-11-21T04:22:25;18.60;;;12.48;;
70975;SDS011;58635;51.198;6.010;2023-11-21T04:24:50;17.15;;;12.77;;
70975;SDS011;58635;51.198;6.010;2023-11-21T04:27:16;18.63;;;12.63;;
70975;SDS011;58635;51.198;6.010;2023-11-21T04:29:45;19.77;;;12.02;;
70975;SDS011;58635;51.198;6.010;2023-11-21T04:32:10;18.13;;;12.10;;
70975;SDS011;58635;51.198;6.010;2023-11-21T04:34:35;18.63;;;12.45;;
70975;SDS011;58635;51.198;6.010;2023-11-21T04:37:01;18.77;;;12.63;;
70975;SDS011;58635;51.198;6.010;2023-11-21T04:39:26;20.30;;;12.55;;
70975;SDS011;58635;51.198;6.010;2023-11-21T04:41:51;20.23;;;13.05;;
70975;SDS011;58635;51.198;6.010;2023-11-21T04:44:17;20.00;;;13.35;;
70975;SDS011;58635;51.198;6.010;2023-11-21T04:46:42;20.58;;;13.27;;
70975;SDS011;58635;51.198;6.010;2023-11-21T04:49:08;23.23;;;13.50;;
70975;SDS011;58635;51.198;6.010;2023-11-21T04:51:34;18.60;;;12.15;;
70975;SDS011;58635;51.198;6.010;2023-11-21T04:53:59;21.25;;;14.32;;
70975;SDS011;58635;51.198;6.010;2023-11-21T04:56:24;21.08;;;13.13;;
70975;SDS011;58635;51.198;6.010;2023-11-21T04:58:50;20.55;;;13.52;;
70975;SDS011;58635;51.198;6.010;2023-11-21T05:01:15;22.27;;;13.93;;
70975;SDS011;58635;51.198;6.010;2023-11-21T05:03:40;24.42;;;13.93;;
70975;SDS011;58635;51.198;6.010;2023-11-21T05:06:06;22.73;;;14.05;;
70975;SDS011;58635;51.198;6.010;2023-11-21T05:08:34;26.45;;;14.75;;
70975;SDS011;58635;51.198;6.010;2023-11-21T05:10:59;28.85;;;16.27;;
70975;SDS011;58635;51.198;6.010;2023-11-21T05:13:25;30.15;;;16.50;;
70975;SDS011;58635;51.198;6.010;2023-11-21T05:15:53;29.98;;;16.00;;
70975;SDS011;58635;51.198;6.010;2023-11-21T05:18:24;30.90;;;15.52;;
70975;SDS011;58635;51.198;6.010;2023-11-21T05:20:52;32.08;;;16.55;;
70975;SDS011;58635;51.198;6.010;2023-11-21T05:23:18;33.53;;;17.40;;
70975;SDS011;58635;51.198;6.010;2023-11-21T05:25:44;32.90;;;16.85;;
70975;SDS011;58635;51.198;6.010;2023-11-21T05:28:11;33.78;;;16.75;;
70975;SDS011;58635;51.198;6.010;2023-11-21T05:30:37;34.67;;;17.00;;
70975;SDS011;58635;51.198;6.010;2023-11-21T05:33:04;36.55;;;16.80;;
70975;SDS011;58635;51.198;6.010;2023-11-21T05:35:29;34.63;;;17.15;;
70975;SDS011;58635;51.198;6.010;2023-11-21T05:37:54;38.72;;;17.70;;
70975;SDS011;58635;51.198;6.010;2023-11-21T05:40:20;39.58;;;16.20;;
70975;SDS011;58635;51.198;6.010;2023-11-21T05:42:47;50.28;;;16.23;;
70975;SDS011;58635;51.198;6.010;2023-11-21T05:45:13;30.73;;;16.23;;
70975;SDS011;58635;51.198;6.010;2023-11-21T05:47:39;31.10;;;16.02;;
70975;SDS011;58635;51.198;6.010;2023-11-21T05:50:06;28.75;;;15.30;;
70975;SDS011;58635;51.198;6.010;2023-11-21T05:52:37;29.83;;;15.40;;
70975;SDS011;58635;51.198;6.010;2023-11-21T05:55:03;32.67;;;15.70;;
70975;SDS011;58635;51.198;6.010;2023-11-21T05:57:32;31.15;;;16.45;;
70975;SDS011;58635;51.198;6.010;2023-11-21T05:59:57;35.42;;;17.20;;
70975;SDS011;58635;51.198;6.010;2023-11-21T06:02:22;40.33;;;16.88;;
70975;SDS011;58635;51.198;6.010;2023-11-21T06:04:48;35.70;;;17.75;;
70975;SDS011;58635;51.198;6.010;2023-11-21T06:07:13;35.97;;;18.27;;
70975;SDS011;58635;51.198;6.010;2023-11-21T06:09:39;36.38;;;16.77;;
70975;SDS011;58635;51.198;6.010;2023-11-21T06:12:05;35.08;;;16.58;;
70975;SDS011;58635;51.198;6.010;2023-11-21T06:14:30;36.20;;;18.02;;
70975;SDS011;58635;51.198;6.010;2023-11-21T06:16:58;38.75;;;18.52;;
70975;SDS011;58635;51.198;6.010;2023-11-21T06:19:23;39.05;;;18.02;;
70975;SDS011;58635;51.198;6.010;2023-11-21T06:21:48;49.78;;;19.15;;
70975;SDS011;58635;51.198;6.010;2023-11-21T06:24:14;33.95;;;16.98;;
70975;SDS011;58635;51.198;6.010;2023-11-21T06:26:40;34.78;;;16.75;;
70975;SDS011;58635;51.198;6.010;2023-11-21T06:29:06;38.13;;;16.40;;
70975;SDS011;58635;51.198;6.010;2023-11-21T06:31:32;33.38;;;15.98;;
70975;SDS011;58635;51.198;6.010;2023-11-21T06:33:57;33.10;;;16.13;;
70975;SDS011;58635;51.198;6.010;2023-11-21T06:36:24;32.75;;;16.05;;
70975;SDS011;58635;51.198;6.010;2023-11-21T06:38:51;38.50;;;16.00;;
70975;SDS011;58635;51.198;6.010;2023-11-21T06:41:16;34.15;;;16.23;;
70975;SDS011;58635;51.198;6.010;2023-11-21T06:43:42;31.77;;;14.73;;
70975;SDS011;58635;51.198;6.010;2023-11-21T06:46:11;37.28;;;14.65;;
70975;SDS011;58635;51.198;6.010;2023-11-21T06:48:36;31.33;;;15.35;;
70975;SDS011;58635;51.198;6.010;2023-11-21T06:51:03;31.60;;;14.05;;
70975;SDS011;58635;51.198;6.010;2023-11-21T06:53:29;24.38;;;12.20;;
70975;SDS011;58635;51.198;6.010;2023-11-21T06:55:54;28.90;;;14.50;;
70975;SDS011;58635;51.198;6.010;2023-11-21T06:58:20;36.22;;;15.85;;
70975;SDS011;58635;51.198;6.010;2023-11-21T07:00:45;29.98;;;14.27;;
70975;SDS011;58635;51.198;6.010;2023-11-21T07:03:13;30.65;;;14.38;;
70975;SDS011;58635;51.198;6.010;2023-11-21T07:05:39;32.45;;;14.77;;
70975;SDS011;58635;51.198;6.010;2023-11-21T07:08:04;33.15;;;15.00;;
70975;SDS011;58635;51.198;6.010;2023-11-21T07:10:29;34.67;;;15.45;;
70975;SDS011;58635;51.198;6.010;2023-11-21T07:12:55;35.08;;;15.18;;
70975;SDS011;58635;51.198;6.010;2023-11-21T07:15:22;34.75;;;14.63;;
70975;SDS011;58635;51.198;6.010;2023-11-21T07:17:47;31.05;;;14.02;;
70975;SDS011;58635;51.198;6.010;2023-11-21T07:20:13;31.88;;;14.30;;
70975;SDS011;58635;51.198;6.010;2023-11-21T07:22:39;33.25;;;14.60;;
70975;SDS011;58635;51.198;6.010;2023-11-21T07:25:05;35.63;;;15.20;;
70975;SDS011;58635;51.198;6.010;2023-11-21T07:27:32;34.45;;;15.00;;
70975;SDS011;58635;51.198;6.010;2023-11-21T07:30:00;31.65;;;14.57;;
70975;SDS011;58635;51.198;6.010;2023-11-21T07:32:25;33.30;;;14.43;;
70975;SDS011;58635;51.198;6.010;2023-11-21T07:34:51;30.00;;;13.77;;
70975;SDS011;58635;51.198;6.010;2023-11-21T07:37:16;28.17;;;13.55;;
70975;SDS011;58635;51.198;6.010;2023-11-21T07:39:42;33.13;;;14.60;;
70975;SDS011;58635;51.198;6.010;2023-11-21T07:42:09;25.90;;;11.80;;
70975;SDS011;58635;51.198;6.010;2023-11-21T07:44:36;29.85;;;14.43;;
70975;SDS011;58635;51.198;6.010;2023-11-21T07:47:01;42.78;;;16.08;;
70975;SDS011;58635;51.198;6.010;2023-11-21T07:49:26;34.38;;;14.52;;
70975;SDS011;58635;51.198;6.010;2023-11-21T07:51:52;32.15;;;14.45;;
70975;SDS011;58635;51.198;6.010;2023-11-21T07:54:17;33.33;;;14.35;;
70975;SDS011;58635;51.198;6.010;2023-11-21T07:56:43;33.22;;;14.43;;
70975;SDS011;58635;51.198;6.010;2023-11-21T07:59:08;35.65;;;14.90;;
70975;SDS011;58635;51.198;6.010;2023-11-21T08:01:33;34.45;;;14.75;;
70975;SDS011;58635;51.198;6.010;2023-11-21T08:03:59;30.92;;;14.20;;
70975;SDS011;58635;51.198;6.010;2023-11-21T08:06:28;32.03;;;14.43;;
70975;SDS011;58635;51.198;6.010;2023-11-21T08:08:54;31.38;;;14.00;;
70975;SDS011;58635;51.198;6.010;2023-11-21T08:11:19;29.92;;;14.48;;
70975;SDS011;58635;51.198;6.010;2023-11-21T08:13:46;33.17;;;14.60;;
70975;SDS011;58635;51.198;6.010;2023-11-21T08:16:11;32.60;;;15.15;;
70975;SDS011;58635;51.198;6.010;2023-11-21T08:18:37;31.38;;;15.50;;
70975;SDS011;58635;51.198;6.010;2023-11-21T08:21:02;35.88;;;15.32;;
70975;SDS011;58635;51.198;6.010;2023-11-21T08:23:29;38.85;;;16.50;;
70975;SDS011;58635;51.198;6.010;2023-11-21T08:25:54;31.95;;;15.23;;
70975;SDS011;58635;51.198;6.010;2023-11-21T08:28:20;36.67;;;16.40;;
70975;SDS011;58635;51.198;6.010;2023-11-21T08:30:51;34.25;;;15.77;;
70975;SDS011;58635;51.198;6.010;2023-11-21T08:33:17;34.90;;;16.38;;
70975;SDS011;58635;51.198;6.010;2023-11-21T08:35:43;34.30;;;15.30;;
70975;SDS011;58635;51.198;6.010;2023-11-21T08:38:10;34.33;;;16.42;;
70975;SDS011;58635;51.198;6.010;2023-11-21T08:40:37;30.85;;;14.55;;
70975;SDS011;58635;51.198;6.010;2023-11-21T08:43:02;31.33;;;14.45;;
70975;SDS011;58635;51.198;6.010;2023-11-21T08:45:29;64.28;;;34.38;;
70975;SDS011;58635;51.198;6.010;2023-11-21T08:47:55;34.55;;;16.35;;
70975;SDS011;58635;51.198;6.010;2023-11-21T08:50:20;31.35;;;15.10;;
70975;SDS011;58635;51.198;6.010;2023-11-21T08:52:46;32.25;;;15.30;;
70975;SDS011;58635;51.198;6.010;2023-11-21T08:55:11;35.40;;;15.27;;
70975;SDS011;58635;51.198;6.010;2023-11-21T08:57:39;30.88;;;14.50;;
70975;SDS011;58635;51.198;6.010;2023-11-21T09:00:07;30.08;;;14.10;;
70975;SDS011;58635;51.198;6.010;2023-11-21T09:02:41;32.38;;;14.40;;
70975;SDS011;58635;51.198;6.010;2023-11-21T09:05:08;29.27;;;13.75;;
70975;SDS011;58635;51.198;6.010;2023-11-21T09:07:34;29.95;;;14.48;;
70975;SDS011;58635;51.198;6.010;2023-11-21T09:10:00;35.22;;;15.95;;
70975;SDS011;58635;51.198;6.010;2023-11-21T09:12:27;31.10;;;16.00;;
70975;SDS011;58635;51.198;6.010;2023-11-21T09:14:52;31.80;;;14.75;;
70975;SDS011;58635;51.198;6.010;2023-11-21T09:17:18;29.92;;;14.60;;
70975;SDS011;58635;51.198;6.010;2023-11-21T09:19:43;32.35;;;15.95;;
70975;SDS011;58635;51.198;6.010;2023-11-21T09:22:12;33.42;;;15.80;;
70975;SDS011;58635;51.198;6.010;2023-11-21T09:24:37;33.83;;;15.48;;
70975;SDS011;58635;51.198;6.010;2023-11-21T09:27:02;36.53;;;15.45;;
70975;SDS011;58635;51.198;6.010;2023-11-21T09:29:28;35.50;;;15.40;;
70975;SDS011;58635;51.198;6.010;2023-11-21T09:31:54;28.45;;;13.93;;
70975;SDS011;58635;51.198;6.010;2023-11-21T09:34:20;33.05;;;15.05;;
70975;SDS011;58635;51.198;6.010;2023-11-21T09:36:45;34.50;;;15.55;;
70975;SDS011;58635;51.198;6.010;2023-11-21T09:39:11;35.60;;;15.57;;
70975;SDS011;58635;51.198;6.010;2023-11-21T09:46:56;37.45;;;16.17;;
70975;SDS011;58635;51.198;6.010;2023-11-21T09:49:24;30.40;;;14.32;;
70975;SDS011;58635;51.198;6.010;2023-11-21T09:51:53;35.50;;;16.05;;
70975;SDS011;58635;51.198;6.010;2023-11-21T09:54:22;32.00;;;15.63;;
70975;SDS011;58635;51.198;6.010;2023-11-21T09:56:48;35.25;;;15.05;;
70975;SDS011;58635;51.198;6.010;2023-11-21T09:59:16;33.47;;;14.68;;
70975;SDS011;58635;51.198;6.010;2023-11-21T10:01:42;31.23;;;14.60;;
70975;SDS011;58635;51.198;6.010;2023-11-21T10:04:09;35.85;;;15.30;;
70975;SDS011;58635;51.198;6.010;2023-11-21T10:06:39;34.67;;;15.90;;
70975;SDS011;58635;51.198;6.010;2023-11-21T10:09:09;39.50;;;16.48;;
70975;SDS011;58635;51.198;6.010;2023-11-21T10:11:39;33.58;;;15.45;;
70975;SDS011;58635;51.198;6.010;2023-11-21T10:14:10;31.45;;;14.52;;
70975;SDS011;58635;51.198;6.010;2023-11-21T10:16:40;32.72;;;14.48;;
70975;SDS011;58635;51.198;6.010;2023-11-21T10:19:10;33.38;;;15.45;;
70975;SDS011;58635;51.198;6.010;2023-11-21T10:21:37;33.15;;;16.05;;
70975;SDS011;58635;51.198;6.010;2023-11-21T10:24:05;33.10;;;14.95;;
70975;SDS011;58635;51.198;6.010;2023-11-21T10:26:32;33.47;;;14.35;;
70975;SDS011;58635;51.198;6.010;2023-11-21T10:29:00;29.65;;;13.77;;
70975;SDS011;58635;51.198;6.010;2023-11-21T10:31:31;38.05;;;16.95;;
70975;SDS011;58635;51.198;6.010;2023-11-21T10:34:13;31.58;;;15.80;;
70975;SDS011;58635;51.198;6.010;2023-11-21T10:36:44;31.35;;;14.52;;
70975;SDS011;58635;51.198;6.010;2023-11-21T10:39:16;30.40;;;15.05;;
70975;SDS011;58635;51.198;6.010;2023-11-21T10:41:46;34.72;;;15.77;;
70975;SDS011;58635;51.198;6.010;2023-11-21T10:44:17;31.50;;;15.13;;
70975;SDS011;58635;51.198;6.010;2023-11-21T10:46:49;30.00;;;13.95;;
70975;SDS011;58635;51.198;6.010;2023-11-21T10:49:22;30.35;;;14.20;;
70975;SDS011;58635;51.198;6.010;2023-11-21T10:51:51;29.02;;;13.05;;
70975;SDS011;58635;51.198;6.010;2023-11-21T10:54:25;29.33;;;14.38;;
70975;SDS011;58635;51.198;6.010;2023-11-21T10:56:53;31.80;;;14.85;;
70975;SDS011;58635;51.198;6.010;2023-11-21T10:59:23;36.55;;;16.85;;
70975;SDS011;58635;51.198;6.010;2023-11-21T11:01:51;31.00;;;15.00;;
70975;SDS011;58635;51.198;6.010;2023-11-21T11:04:19;33.78;;;15.63;;
70975;SDS011;58635;51.198;6.010;2023-11-21T11:06:45;27.92;;;13.75;;
70975;SDS011;58635;51.198;6.010;2023-11-21T11:09:24;28.65;;;13.55;;
70975;SDS011;58635;51.198;6.010;2023-11-21T11:11:50;28.25;;;13.38;;
70975;SDS011;58635;51.198;6.010;2023-11-21T11:14:17;25.67;;;12.70;;
70975;SDS011;58635;51.198;6.010;2023-11-21T11:16:45;26.98;;;12.15;;
70975;SDS011;58635;51.198;6.010;2023-11-21T11:19:12;25.92;;;12.52;;
70975;SDS011;58635;51.198;6.010;2023-11-21T11:21:45;24.70;;;12.32;;
70975;SDS011;58635;51.198;6.010;2023-11-21T11:36:01;29.85;;;14.63;;
70975;SDS011;58635;51.198;6.010;2023-11-21T11:38:32;34.78;;;15.55;;
70975;SDS011;58635;51.198;6.010;2023-11-21T11:41:02;33.70;;;15.70;;
70975;SDS011;58635;51.198;6.010;2023-11-21T11:43:30;30.73;;;15.23;;
70975;SDS011;58635;51.198;6.010;2023-11-21T11:46:10;32.15;;;14.45;;
70975;SDS011;58635;51.198;6.010;2023-11-21T11:48:40;26.42;;;13.77;;
70975;SDS011;58635;51.198;6.010;2023-11-21T11:51:10;25.33;;;12.00;;
70975;SDS011;58635;51.198;6.010;2023-11-21T11:53:41;22.23;;;11.07;;
70975;SDS011;58635;51.198;6.010;2023-11-21T11:56:29;23.38;;;11.95;;
70975;SDS011;58635;51.198;6.010;2023-11-21T11:59:01;22.45;;;12.43;;
70975;SDS011;58635;51.198;6.010;2023-11-21T12:01:29;21.20;;;12.02;;
70975;SDS011;58635;51.198;6.010;2023-11-21T12:06:46;26.23;;;13.10;;
70975;SDS011;58635;51.198;6.010;2023-11-21T12:09:17;26.45;;;12.82;;
70975;SDS011;58635;51.198;6.010;2023-11-21T12:11:50;23.58;;;12.48;;
70975;SDS011;58635;51.198;6.010;2023-11-21T12:14:16;24.05;;;12.00;;
70975;SDS011;58635;51.198;6.010;2023-11-21T12:16:43;27.08;;;12.70;;
70975;SDS011;58635;51.198;6.010;2023-11-21T12:19:11;23.48;;;12.00;;
70975;SDS011;58635;51.198;6.010;2023-11-21T12:21:37;28.42;;;13.38;;
70975;SDS011;58635;51.198;6.010;2023-11-21T12:24:07;21.52;;;11.25;;
70975;SDS011;58635;51.198;6.010;2023-11-21T12:26:35;22.25;;;10.77;;
70975;SDS011;58635;51.198;6.010;2023-11-21T12:29:02;20.70;;;10.75;;
70975;SDS011;58635;51.198;6.010;2023-11-21T12:31:30;19.00;;;10.45;;
70975;SDS011;58635;51.198;6.010;2023-11-21T12:33:57;22.75;;;14.27;;
70975;SDS011;58635;51.198;6.010;2023-11-21T12:36:23;19.25;;;11.30;;
70975;SDS011;58635;51.198;6.010;2023-11-21T12:38:51;19.85;;;10.77;;
70975;SDS011;58635;51.198;6.010;2023-11-21T12:41:17;22.58;;;13.80;;
70975;SDS011;58635;51.198;6.010;2023-11-21T12:43:44;19.05;;;11.07;;
70975;SDS011;58635;51.198;6.010;2023-11-21T12:46:10;16.55;;;9.73;;
70975;SDS011;58635;51.198;6.010;2023-11-21T12:48:37;15.90;;;9.05;;
70975;SDS011;58635;51.198;6.010;2023-11-21T12:51:10;18.30;;;12.23;;
70975;SDS011;58635;51.198;6.010;2023-11-21T12:53:38;19.45;;;13.90;;
70975;SDS011;58635;51.198;6.010;2023-11-21T12:56:07;13.32;;;9.38;;
70975;SDS011;58635;51.198;6.010;2023-11-21T12:58:37;14.80;;;9.43;;
70975;SDS011;58635;51.198;6.010;2023-11-21T13:01:06;17.05;;;10.20;;
70975;SDS011;58635;51.198;6.010;2023-11-21T13:03:37;13.85;;;8.80;;
70975;SDS011;58635;51.198;6.010;2023-11-21T13:06:05;16.10;;;8.85;;
70975;SDS011;58635;51.198;6.010;2023-11-21T13:08:33;14.40;;;8.85;;
70975;SDS011;58635;51.198;6.010;2023-11-21T13:11:00;15.50;;;9.02;;
70975;SDS011;58635;51.198;6.010;2023-11-21T13:13:29;16.33;;;10.07;;
70975;SDS011;58635;51.198;6.010;2023-11-21T13:16:00;16.20;;;10.02;;
70975;SDS011;58635;51.198;6.010;2023-11-21T13:18:27;16.48;;;9.95;;
70975;SDS011;58635;51.198;6.010;2023-11-21T13:20:58;17.77;;;10.60;;
70975;SDS011;58635;51.198;6.010;2023-11-21T13:23:26;18.17;;;10.63;;
70975;SDS011;58635;51.198;6.010;2023-11-21T13:25:53;18.23;;;10.55;;
70975;SDS011;58635;51.198;6.010;2023-11-21T13:28:19;14.27;;;9.60;;
70975;SDS011;58635;51.198;6.010;2023-11-21T13:30:47;15.80;;;9.52;;
70975;SDS011;58635;51.198;6.010;2023-11-21T13:33:14;17.42;;;9.80;;
70975;SDS011;58635;51.198;6.010;2023-11-21T13:35:47;14.88;;;9.20;;
70975;SDS011;58635;51.198;6.010;2023-11-21T13:38:16;12.68;;;8.70;;
70975;SDS011;58635;51.198;6.010;2023-11-21T13:40:47;13.55;;;8.27;;
70975;SDS011;58635;51.198;6.010;2023-11-21T13:43:21;12.90;;;7.22;;
70975;SDS011;58635;51.198;6.010;2023-11-21T13:45:52;11.98;;;7.95;;
70975;SDS011;58635;51.198;6.010;2023-11-21T13:48:41;11.60;;;7.05;;
70975;SDS011;58635;51.198;6.010;2023-11-21T13:51:09;11.13;;;6.82;;
70975;SDS011;58635;51.198;6.010;2023-11-21T13:53:44;8.35;;;5.97;;
70975;SDS011;58635;51.198;6.010;2023-11-21T13:56:14;9.63;;;6.00;;
70975;SDS011;58635;51.198;6.010;2023-11-21T13:58:45;9.55;;;5.78;;
70975;SDS011;58635;51.198;6.010;2023-11-21T14:01:18;9.27;;;5.32;;
70975;SDS011;58635;51.198;6.010;2023-11-21T14:04:11;8.45;;;4.93;;
70975;SDS011;58635;51.198;6.010;2023-11-21T14:06:43;7.47;;;4.63;;
70975;SDS011;58635;51.198;6.010;2023-11-21T14:09:18;8.70;;;4.93;;
70975;SDS011;58635;51.198;6.010;2023-11-21T14:11:55;7.90;;;4.80;;
70975;SDS011;58635;51.198;6.010;2023-11-21T14:14:23;7.78;;;4.88;;
70975;SDS011;58635;51.198;6.010;2023-11-21T14:16:52;8.05;;;5.22;;
70975;SDS011;58635;51.198;6.010;2023-11-21T14:19:18;7.65;;;4.72;;
70975;SDS011;58635;51.198;6.010;2023-11-21T14:21:45;6.40;;;4.32;;
70975;SDS011;58635;51.198;6.010;2023-11-21T14:24:12;7.93;;;4.65;;
70975;SDS011;58635;51.198;6.010;2023-11-21T14:26:42;6.32;;;3.80;;
70975;SDS011;58635;51.198;6.010;2023-11-21T14:29:11;6.78;;;4.65;;
70975;SDS011;58635;51.198;6.010;2023-11-21T14:31:42;7.35;;;4.72;;
70975;SDS011;58635;51.198;6.010;2023-11-21T14:34:09;9.45;;;6.03;;
70975;SDS011;58635;51.198;6.010;2023-11-21T14:36:38;8.80;;;4.78;;
70975;SDS011;58635;51.198;6.010;2023-11-21T14:39:07;7.40;;;4.20;;
70975;SDS011;58635;51.198;6.010;2023-11-21T14:41:37;5.43;;;3.72;;
70975;SDS011;58635;51.198;6.010;2023-11-21T14:44:05;6.88;;;4.22;;
70975;SDS011;58635;51.198;6.010;2023-11-21T14:46:33;5.95;;;4.05;;